Time;durP1;ratioP1;P1;durP2;ratioP2;P2;SDS_P1;SDS_P2;PMS_P1;PMS_P2;Temp;Humidity;BMP_temperature;BMP_pressure;BME280_temperature;BME280_humidity;BME280_pressure;Samples;Min_cycle;Max_cycle;Signal;HPM_P1;HPM_P2
2023/10/15 00:00:12;;;;;;;4.97;1.77;;;;;;;9.32;77.45;100795.66;5046334;28;20215;-87
2023/10/15 00:02:41;;;;;;;4.33;2.20;;;;;;;9.26;77.56;100804.38;5036471;28;20223;-86
2023/10/15 00:05:09;;;;;;;6.73;1.50;;;;;;;9.35;77.18;100803.44;5033633;28;20195;-86
2023/10/15 00:07:35;;;;;;;11.43;1.93;;;;;;;9.21;77.58;100808.75;5033568;28;20207;-85
2023/10/15 00:10:02;;;;;;;9.00;1.97;;;;;;;9.26;77.76;100799.19;5034162;28;20214;-87
2023/10/15 00:12:30;;;;;;;12.83;2.63;;;;;;;9.20;77.83;100796.63;5033855;28;20230;-84
2023/10/15 00:14:56;;;;;;;12.17;3.57;;;;;;;9.12;78.02;100795.81;5032493;28;20208;-85
2023/10/15 00:17:23;;;;;;;8.30;1.60;;;;;;;9.22;78.23;100786.19;5032523;28;20206;-86
2023/10/15 00:19:51;;;;;;;4.90;1.47;;;;;;;8.99;78.22;100805.44;5032416;28;20205;-85
2023/10/15 00:22:18;;;;;;;6.30;1.93;;;;;;;9.12;78.28;100794.06;5032483;28;20218;-86
2023/10/15 00:24:45;;;;;;;4.87;1.60;;;;;;;9.19;77.97;100788.81;5033071;28;20210;-85
2023/10/15 00:27:11;;;;;;;7.17;1.90;;;;;;;9.18;78.28;100785.34;5036924;28;20208;-84
2023/10/15 00:29:38;;;;;;;6.73;1.80;;;;;;;9.20;78.20;100786.22;5043529;28;20217;-86
2023/10/15 00:32:04;;;;;;;6.77;1.80;;;;;;;9.30;78.21;100793.06;5040067;28;20227;-86
2023/10/15 00:34:31;;;;;;;7.23;1.80;;;;;;;9.23;78.08;100793.13;5048303;28;20206;-87
2023/10/15 00:36:59;;;;;;;5.03;1.83;;;;;;;9.08;78.56;100789.75;5032403;28;20210;-85
2023/10/15 00:39:28;;;;;;;6.37;1.63;;;;;;;9.12;79.05;100764.56;5033021;28;20221;-86
2023/10/15 00:41:54;;;;;;;6.00;1.67;;;;;;;9.05;78.87;100762.88;5031907;28;20249;-84
2023/10/15 00:44:20;;;;;;;8.43;2.40;;;;;;;9.01;78.68;100756.81;5036862;28;20203;-84
2023/10/15 00:46:54;;;;;;;7.13;1.80;;;;;;;8.91;79.15;100760.38;5033303;28;20203;-86
2023/10/15 00:49:24;;;;;;;5.97;1.60;;;;;;;9.07;79.06;100753.31;5031945;28;20235;-86
2023/10/15 00:51:52;;;;;;;5.67;1.90;;;;;;;9.21;78.52;100759.28;5034213;28;20234;-87
2023/10/15 00:54:21;;;;;;;7.27;1.43;;;;;;;9.10;78.40;100766.31;5046184;28;20199;-86
2023/10/15 00:56:54;;;;;;;6.80;2.00;;;;;;;9.15;78.48;100762.78;5032388;28;20211;-86
2023/10/15 00:59:21;;;;;;;6.87;2.37;;;;;;;9.09;78.64;100761.97;5045742;28;20212;-87
2023/10/15 01:01:54;;;;;;;6.50;1.50;;;;;;;9.09;78.57;100767.19;5044314;28;20223;-85
2023/10/15 01:04:27;;;;;;;5.87;1.90;;;;;;;9.27;78.31;100766.16;5046169;28;20210;-84
2023/10/15 01:06:59;;;;;;;7.60;2.37;;;;;;;9.30;78.05;100771.38;5033166;28;20225;-86
2023/10/15 01:09:28;;;;;;;5.43;1.90;;;;;;;9.44;77.57;100773.84;5039289;28;20210;-86
2023/10/15 01:11:56;;;;;;;6.57;1.77;;;;;;;9.47;77.25;100782.47;5041546;28;20226;-86
2023/10/15 01:14:28;;;;;;;6.60;2.00;;;;;;;9.46;77.62;100785.13;5037604;28;20249;-86
2023/10/15 01:16:55;;;;;;;8.70;2.13;;;;;;;9.34;77.13;100791.31;5041245;28;20219;-85
2023/10/15 01:19:31;;;;;;;6.23;2.10;;;;;;;9.17;77.25;100803.59;5031711;28;20206;-86
2023/10/15 01:22:01;;;;;;;8.60;2.40;;;;;;;9.08;77.55;100794.97;5031648;28;20236;-86
2023/10/15 01:24:32;;;;;;;7.23;2.20;;;;;;;9.07;77.67;100784.56;5031813;28;20195;-86
2023/10/15 01:27:05;;;;;;;7.93;2.13;;;;;;;9.12;78.29;100752.41;5031168;28;20272;-83
2023/10/15 01:29:33;;;;;;;9.23;2.27;;;;;;;8.90;77.98;100762.13;5047193;28;20198;-86
2023/10/15 01:32:03;;;;;;;5.63;2.57;;;;;;;8.92;78.08;100760.38;5040347;28;20228;-85
2023/10/15 01:34:37;;;;;;;8.13;3.90;;;;;;;8.91;78.45;100740.41;5031048;28;20203;-86
2023/10/15 01:37:10;;;;;;;13.63;2.33;;;;;;;8.77;78.91;100741.38;5029938;28;20219;-86
2023/10/15 01:39:39;;;;;;;4.40;1.87;;;;;;;8.96;79.05;100737.78;5038336;28;20206;-86
2023/10/15 01:42:07;;;;;;;5.50;2.20;;;;;;;8.75;79.82;100720.56;5034698;28;20253;-85
2023/10/15 01:44:38;;;;;;;7.93;2.70;;;;;;;8.71;79.85;100705.84;5043190;28;20217;-85
2023/10/15 01:47:08;;;;;;;6.73;2.43;;;;;;;8.79;79.38;100706.66;5030933;28;20207;-84
2023/10/15 01:49:35;;;;;;;5.73;2.00;;;;;;;8.85;79.38;100703.16;5030918;28;20253;-85
2023/10/15 01:52:10;;;;;;;6.70;2.33;;;;;;;8.72;79.73;100697.16;5030264;28;20289;-86
2023/10/15 01:54:37;;;;;;;6.00;2.33;;;;;;;8.82;79.31;100700.56;5031610;28;20234;-83
2023/10/15 01:57:06;;;;;;;8.77;2.37;;;;;;;8.70;80.14;100688.50;5031453;28;20203;-86
2023/10/15 01:59:44;;;;;;;7.77;3.27;;;;;;;8.68;80.06;100679.84;5044701;28;20233;-86
2023/10/15 02:02:13;;;;;;;5.37;2.10;;;;;;;8.59;81.03;100656.50;5048804;28;20225;-83
2023/10/15 02:04:44;;;;;;;6.27;2.23;;;;;;;8.55;80.40;100664.31;5049244;28;20222;-85
2023/10/15 02:07:13;;;;;;;9.97;2.60;;;;;;;8.66;80.19;100661.66;5042010;28;20208;-86
2023/10/15 02:09:43;;;;;;;6.87;2.10;;;;;;;8.57;81.25;100664.31;5049333;28;20206;-86
2023/10/15 02:12:10;;;;;;;8.27;3.23;;;;;;;8.33;81.64;100657.50;5049118;28;20276;-85
2023/10/15 02:14:41;;;;;;;10.93;3.20;;;;;;;8.51;81.78;100635.75;5048359;28;20212;-86
2023/10/15 02:17:13;;;;;;;8.87;2.90;;;;;;;8.58;81.67;100634.81;5049918;28;20233;-86
2023/10/15 02:19:41;;;;;;;8.80;2.53;;;;;;;8.64;80.56;100653.00;5050131;28;20613;-87
2023/10/15 02:22:12;;;;;;;5.23;2.30;;;;;;;8.39;81.63;100654.00;5030074;28;20219;-86
2023/10/15 02:24:38;;;;;;;4.23;1.90;;;;;;;8.52;81.95;100640.94;5028430;28;20215;-83
2023/10/15 02:27:06;;;;;;;8.23;2.17;;;;;;;8.54;81.55;100641.78;5028613;28;20199;-83
2023/10/15 02:29:36;;;;;;;6.67;2.30;;;;;;;8.73;80.74;100641.63;5043221;28;20202;-84
2023/10/15 02:32:20;;;;;;;5.30;2.17;;;;;;;8.68;80.47;100649.50;5030134;28;20231;-87
2023/10/15 02:34:50;;;;;;;8.63;2.27;;;;;;;8.69;81.06;100639.94;5029421;28;20270;-84
2023/10/15 02:37:18;;;;;;;6.10;2.27;;;;;;;8.48;81.60;100640.94;5044563;28;20198;-86
2023/10/15 02:39:50;;;;;;;5.27;2.80;;;;;;;8.60;81.63;100627.84;5029046;28;20218;-84
2023/10/15 02:42:16;;;;;;;5.83;2.20;;;;;;;8.50;81.27;100632.28;5040353;28;20643;-86
2023/10/15 02:44:43;;;;;;;6.30;1.83;;;;;;;8.59;81.57;100639.16;5032903;28;20214;-83
2023/10/15 02:47:19;;;;;;;5.33;2.13;;;;;;;8.67;81.33;100633.88;5028793;28;20218;-86
2023/10/15 02:49:53;;;;;;;5.23;2.03;;;;;;;8.75;80.84;100648.56;5029353;28;20208;-86
2023/10/15 02:52:23;;;;;;;8.80;2.80;;;;;;;8.32;81.63;100660.97;5027192;28;20238;-86
2023/10/15 02:54:49;;;;;;;8.33;2.50;;;;;;;8.35;81.98;100627.16;5029551;28;20221;-87
2023/10/15 02:57:16;;;;;;;7.40;2.53;;;;;;;8.49;81.67;100624.47;5028941;28;20212;-87
2023/10/15 02:59:50;;;;;;;7.40;2.13;;;;;;;8.49;81.29;100640.09;5044140;28;20206;-87
2023/10/15 03:02:19;;;;;;;6.47;1.80;;;;;;;8.13;81.50;100652.44;5028988;28;20224;-86
2023/10/15 03:04:52;;;;;;;5.53;2.33;;;;;;;8.26;81.85;100622.00;5028283;28;20576;-85
2023/10/15 03:07:19;;;;;;;5.50;1.70;;;;;;;8.29;82.34;100622.84;5027948;28;20204;-84
2023/10/15 03:09:48;;;;;;;8.30;1.67;;;;;;;8.45;81.42;100623.63;5028889;28;20207;-85
2023/10/15 03:12:16;;;;;;;8.23;2.00;;;;;;;8.33;81.61;100624.56;5029012;28;20223;-85
2023/10/15 03:14:42;;;;;;;8.67;1.83;;;;;;;8.42;82.04;100620.19;5027402;28;20211;-86
2023/10/15 03:17:13;;;;;;;6.23;1.67;;;;;;;8.61;81.66;100626.13;5029348;28;20199;-83
2023/10/15 03:19:43;;;;;;;7.07;1.30;;;;;;;8.55;80.90;100640.91;5028474;28;20257;-85
2023/10/15 03:22:12;;;;;;;7.53;1.90;;;;;;;8.41;81.28;100649.66;5035021;28;20240;-86
2023/10/15 03:24:43;;;;;;;4.93;1.50;;;;;;;8.53;81.35;100647.84;5033681;28;20215;-84
2023/10/15 03:27:11;;;;;;;5.60;1.60;;;;;;;8.45;80.42;100672.22;5028605;28;20288;-86
2023/10/15 03:29:37;;;;;;;4.23;1.80;;;;;;;8.68;80.54;100674.63;5035133;28;20289;-87
2023/10/15 03:32:09;;;;;;;6.33;1.50;;;;;;;8.54;80.52;100675.63;5037744;28;20235;-86
2023/10/15 03:34:42;;;;;;;5.97;1.47;;;;;;;8.43;81.60;100664.41;5027260;28;20206;-86
2023/10/15 03:37:14;;;;;;;6.77;1.50;;;;;;;8.43;81.37;100661.81;5039835;28;20210;-85
2023/10/15 03:39:54;;;;;;;3.37;1.50;;;;;;;8.28;81.66;100667.91;5047899;28;20206;-86
2023/10/15 03:42:26;;;;;;;4.00;1.43;;;;;;;8.57;81.44;100663.47;5036269;28;20233;-86
2023/10/15 03:44:59;;;;;;;5.50;1.57;;;;;;;8.43;81.49;100654.00;5028474;28;20666;-86
2023/10/15 03:47:26;;;;;;;4.13;1.20;;;;;;;8.44;80.64;100650.50;5043849;28;20211;-85
2023/10/15 03:49:55;;;;;;;4.37;1.20;;;;;;;8.55;80.55;100658.25;5030525;28;20195;-86
2023/10/15 03:52:23;;;;;;;5.90;1.30;;;;;;;8.60;80.10;100664.28;5032663;28;20230;-86
2023/10/15 03:54:50;;;;;;;2.70;0.83;;;;;;;8.58;79.50;100683.38;5032283;28;20207;-85
2023/10/15 03:57:18;;;;;;;2.93;0.97;;;;;;;8.47;79.04;100707.75;5048346;28;20213;-86
2023/10/15 03:59:50;;;;;;;3.27;0.83;;;;;;;8.52;79.13;100705.97;5047235;28;20210;-85
2023/10/15 04:02:22;;;;;;;5.80;2.13;;;;;;;8.47;79.55;100696.47;5050716;28;20222;-87
2023/10/15 04:04:56;;;;;;;4.07;1.57;;;;;;;8.59;80.22;100670.38;5050911;28;20221;-87
2023/10/15 04:07:25;;;;;;;4.67;1.47;;;;;;;8.33;81.08;100670.50;5030795;28;20234;-86
2023/10/15 04:09:51;;;;;;;5.00;2.47;;;;;;;8.46;80.40;100659.19;5031586;28;20213;-86
2023/10/15 04:12:19;;;;;;;4.47;1.67;;;;;;;8.48;80.31;100669.56;5032053;28;20207;-85
2023/10/15 04:14:46;;;;;;;3.80;1.67;;;;;;;8.42;80.74;100659.22;5031029;28;20231;-86
2023/10/15 04:17:15;;;;;;;3.00;1.40;;;;;;;8.49;81.00;100653.09;5031592;28;20547;-87
2023/10/15 04:19:43;;;;;;;6.63;2.10;;;;;;;8.51;80.94;100651.34;5032436;28;20211;-87
2023/10/15 04:22:13;;;;;;;4.00;1.57;;;;;;;8.38;81.45;100642.72;5031001;28;20242;-87
2023/10/15 04:24:44;;;;;;;3.30;1.37;;;;;;;8.37;80.81;100641.00;5046483;28;20220;-87
2023/10/15 04:27:15;;;;;;;4.93;1.60;;;;;;;8.34;80.79;100644.50;5032928;28;20210;-86
2023/10/15 04:29:51;;;;;;;2.87;1.20;;;;;;;8.53;80.36;100653.06;5050805;28;20206;-87
2023/10/15 04:32:28;;;;;;;4.53;1.40;;;;;;;8.34;80.15;100664.41;5031783;28;20234;-87
2023/10/15 04:35:00;;;;;;;4.57;1.40;;;;;;;8.30;81.28;100660.13;5031072;28;20221;-86
2023/10/15 04:37:28;;;;;;;2.50;1.50;;;;;;;8.20;81.76;100638.50;5030545;28;20203;-86
2023/10/15 04:39:58;;;;;;;2.90;1.23;;;;;;;8.30;81.46;100628.91;5031753;28;20202;-86
2023/10/15 04:42:29;;;;;;;3.60;1.37;;;;;;;8.55;81.28;100608.81;5046991;28;20237;-86
2023/10/15 04:44:55;;;;;;;4.37;1.17;;;;;;;8.32;81.62;100630.66;5030715;28;20217;-86
2023/10/15 04:47:30;;;;;;;3.03;1.40;;;;;;;8.21;82.16;100611.63;5032766;28;20206;-86
2023/10/15 04:49:57;;;;;;;4.13;1.23;;;;;;;8.45;81.50;100618.44;5031867;28;20210;-85
2023/10/15 04:52:25;;;;;;;3.47;1.37;;;;;;;8.36;81.91;100623.66;5031749;28;20252;-85
2023/10/15 04:54:55;;;;;;;4.53;1.67;;;;;;;8.32;81.63;100612.44;5031689;28;20211;-86
2023/10/15 04:57:23;;;;;;;3.63;1.57;;;;;;;8.33;81.95;100615.91;5043784;28;20252;-87
2023/10/15 04:59:50;;;;;;;3.77;1.83;;;;;;;8.30;81.45;100618.50;5050826;28;20190;-85
2023/10/15 05:02:18;;;;;;;2.93;1.40;;;;;;;8.41;81.81;100614.13;5051968;28;20306;-86
2023/10/15 05:04:44;;;;;;;2.63;1.43;;;;;;;8.35;81.89;100629.75;5052238;28;20245;-83
2023/10/15 05:07:11;;;;;;;5.53;1.47;;;;;;;8.24;82.47;100605.53;5051019;28;20213;-86
2023/10/15 05:09:40;;;;;;;1.83;0.87;;;;;;;8.16;82.43;100600.38;5037529;28;20270;-86
2023/10/15 05:12:07;;;;;;;1.50;0.70;;;;;;;8.42;81.56;100602.84;5032318;28;20262;-87
2023/10/15 05:14:36;;;;;;;2.63;1.00;;;;;;;8.29;81.49;100606.38;5032043;28;20255;-86
2023/10/15 05:17:02;;;;;;;2.27;1.00;;;;;;;8.27;81.48;100611.59;5032040;28;20207;-84
2023/10/15 05:19:29;;;;;;;3.20;0.87;;;;;;;8.40;80.75;100627.09;5031227;28;20218;-85
2023/10/15 05:21:56;;;;;;;2.40;0.80;;;;;;;8.31;81.30;100641.91;5030844;28;20231;-87
2023/10/15 05:24:22;;;;;;;2.87;1.00;;;;;;;8.33;81.23;100629.75;5031363;28;20217;-87
2023/10/15 05:26:48;;;;;;;2.83;0.73;;;;;;;8.24;80.68;100628.94;5030832;28;20210;-86
2023/10/15 05:29:15;;;;;;;1.10;0.80;;;;;;;8.20;80.95;100641.09;5033159;28;20282;-86
2023/10/15 05:31:44;;;;;;;2.77;0.70;;;;;;;8.14;80.69;100662.78;5050188;28;20226;-84
2023/10/15 05:34:11;;;;;;;1.00;0.63;;;;;;;8.00;80.82;100659.41;5039424;28;20206;-84
2023/10/15 05:36:38;;;;;;;2.73;0.87;;;;;;;8.12;81.15;100651.53;5030715;28;20210;-86
2023/10/15 05:39:08;;;;;;;0.80;0.63;;;;;;;7.96;81.05;100666.34;5031544;28;20267;-85
2023/10/15 05:41:34;;;;;;;1.90;0.57;;;;;;;8.19;81.39;100646.34;5053723;28;20218;-85
2023/10/15 05:44:01;;;;;;;2.40;0.70;;;;;;;8.34;80.79;100648.81;5045352;28;20203;-86
2023/10/15 05:46:28;;;;;;;1.30;0.57;;;;;;;8.35;80.88;100668.75;5031093;28;20210;-86
2023/10/15 05:48:56;;;;;;;1.50;0.70;;;;;;;8.24;80.82;100674.00;5030536;28;20207;-86
2023/10/15 05:51:22;;;;;;;1.67;0.77;;;;;;;8.28;80.61;100670.50;5030539;28;20203;-87
2023/10/15 05:53:49;;;;;;;2.93;0.70;;;;;;;8.33;80.42;100679.16;5030832;28;20231;-87
2023/10/15 05:56:16;;;;;;;3.57;0.87;;;;;;;8.01;81.23;100681.06;5042056;28;20203;-87
2023/10/15 05:58:43;;;;;;;1.10;0.67;;;;;;;8.13;81.75;100662.81;5042382;28;20228;-85
2023/10/15 06:01:10;;;;;;;1.47;1.10;;;;;;;7.67;83.03;100652.63;5048207;28;20210;-85
2023/10/15 06:03:37;;;;;;;2.10;0.50;;;;;;;7.78;83.99;100611.88;5029344;28;20245;-87
2023/10/15 06:06:06;;;;;;;1.13;0.50;;;;;;;7.83;84.03;100589.34;5030597;28;20215;-86
2023/10/15 06:08:32;;;;;;;1.40;0.70;;;;;;;7.90;84.06;100585.81;5030089;28;20206;-86
2023/10/15 06:10:59;;;;;;;1.13;0.53;;;;;;;7.56;84.49;100585.97;5029439;28;20211;-87
2023/10/15 06:13:25;;;;;;;1.87;0.70;;;;;;;7.90;84.19;100570.22;5030258;28;20235;-85
2023/10/15 06:15:52;;;;;;;2.20;0.60;;;;;;;7.86;84.43;100581.50;5030249;28;20211;-86
2023/10/15 06:18:19;;;;;;;2.20;0.70;;;;;;;7.74;85.34;100581.56;5029487;28;20207;-87
2023/10/15 06:20:46;;;;;;;1.67;0.73;;;;;;;7.70;85.95;100566.88;5029751;28;20210;-86
2023/10/15 06:23:14;;;;;;;1.67;0.93;;;;;;;7.73;85.58;100553.84;5029367;28;20227;-87
2023/10/15 06:25:42;;;;;;;2.00;1.00;;;;;;;7.64;85.56;100559.13;5030457;28;20234;-87
2023/10/15 06:28:13;;;;;;;1.00;0.57;;;;;;;7.55;85.77;100563.50;5029932;28;20235;-86
2023/10/15 06:30:40;;;;;;;3.63;0.83;;;;;;;7.60;85.95;100547.88;5049862;28;20202;-87
2023/10/15 06:33:07;;;;;;;1.90;1.10;;;;;;;7.72;85.95;100542.59;5032265;28;20226;-87
2023/10/15 06:35:33;;;;;;;2.33;0.90;;;;;;;7.82;85.79;100542.56;5029230;28;20218;-88
2023/10/15 06:38:00;;;;;;;1.37;0.90;;;;;;;8.03;85.53;100551.97;5030127;28;20203;-87
2023/10/15 06:40:28;;;;;;;1.30;0.73;;;;;;;7.98;85.30;100569.31;5030243;28;20278;-86
2023/10/15 06:43:00;;;;;;;1.90;1.10;;;;;;;7.81;85.43;100574.59;5029459;28;20235;-87
2023/10/15 06:45:27;;;;;;;1.40;1.10;;;;;;;7.98;85.10;100574.53;5029916;28;20206;-87
2023/10/15 06:47:55;;;;;;;1.03;0.63;;;;;;;7.73;86.20;100572.94;5029506;28;20214;-87
2023/10/15 06:50:21;;;;;;;1.97;0.90;;;;;;;7.73;86.30;100564.25;5030015;28;20209;-86
2023/10/15 06:52:48;;;;;;;3.43;0.80;;;;;;;7.76;87.01;100567.69;5028959;28;20237;-86
2023/10/15 06:55:16;;;;;;;1.73;0.80;;;;;;;7.96;86.92;100553.72;5030237;28;20211;-86
2023/10/15 06:57:43;;;;;;;0.73;0.73;;;;;;;7.89;86.79;100568.50;5029463;28;20206;-86
2023/10/15 07:00:11;;;;;;;3.20;1.00;;;;;;;8.08;86.18;100576.19;5046973;28;20207;-87
2023/10/15 07:02:38;;;;;;;2.73;1.27;;;;;;;8.05;86.15;100582.28;5037712;28;20253;-87
2023/10/15 07:05:06;;;;;;;3.27;1.20;;;;;;;8.27;86.49;100569.97;5029854;28;20230;-85
2023/10/15 07:07:33;;;;;;;2.30;1.23;;;;;;;8.23;86.28;100589.09;5033841;28;20208;-86
2023/10/15 07:10:00;;;;;;;1.83;1.10;;;;;;;8.15;87.16;100580.47;5041831;28;20207;-86
2023/10/15 07:12:27;;;;;;;1.30;1.00;;;;;;;8.19;86.25;100583.94;5029724;28;20418;-87
2023/10/15 07:14:55;;;;;;;3.90;1.20;;;;;;;8.16;87.57;100570.03;5029338;28;20207;-87
2023/10/15 07:17:21;;;;;;;2.63;1.40;;;;;;;8.29;87.09;100572.59;5030195;28;20226;-85
2023/10/15 07:19:48;;;;;;;1.80;1.30;;;;;;;8.41;86.42;100595.91;5030588;28;20209;-86
2023/10/15 07:22:14;;;;;;;1.83;1.20;;;;;;;8.19;85.81;100602.97;5031927;28;20228;-87
2023/10/15 07:24:41;;;;;;;2.27;1.57;;;;;;;8.33;86.36;100601.16;5039282;28;20209;-86
2023/10/15 07:27:07;;;;;;;2.13;1.33;;;;;;;8.27;86.47;100605.53;5031856;28;20206;-85
2023/10/15 07:29:34;;;;;;;3.13;1.50;;;;;;;8.39;85.99;100607.19;5044125;28;20230;-85
2023/10/15 07:32:02;;;;;;;1.53;1.00;;;;;;;8.06;85.70;100628.19;5043410;28;20226;-84
2023/10/15 07:34:30;;;;;;;2.97;1.40;;;;;;;8.19;86.71;100602.97;5031683;28;20233;-84
2023/10/15 07:36:56;;;;;;;2.67;1.07;;;;;;;8.35;86.29;100609.78;5033932;28;20563;-83
2023/10/15 07:39:24;;;;;;;3.53;1.40;;;;;;;8.43;85.47;100625.38;5034036;28;20213;-83
2023/10/15 07:41:51;;;;;;;2.10;1.90;;;;;;;8.27;85.37;100636.75;5033134;28;20219;-84
2023/10/15 07:44:18;;;;;;;3.13;2.80;;;;;;;8.16;86.00;100635.03;5038406;28;20234;-84
2023/10/15 07:46:45;;;;;;;1.97;1.10;;;;;;;8.42;86.32;100628.84;5039686;28;20199;-84
2023/10/15 07:49:14;;;;;;;2.27;1.93;;;;;;;8.33;86.19;100637.56;5039295;28;20187;-82
2023/10/15 07:51:40;;;;;;;1.90;1.60;;;;;;;8.39;85.28;100639.25;5039858;28;20208;-83
2023/10/15 07:54:07;;;;;;;3.37;1.07;;;;;;;8.52;84.71;100640.06;5056449;28;20219;-85
2023/10/15 07:56:34;;;;;;;1.33;1.10;;;;;;;8.67;84.25;100665.13;5040131;28;20206;-84
2023/10/15 07:59:01;;;;;;;4.40;2.33;;;;;;;8.22;84.42;100683.56;5045050;28;20277;-85
2023/10/15 08:01:28;;;;;;;2.43;2.23;;;;;;;8.48;84.83;100661.75;5038100;28;20206;-84
2023/10/15 08:03:55;;;;;;;1.63;1.33;;;;;;;8.58;84.80;100662.56;5028394;28;20207;-85
2023/10/15 08:06:23;;;;;;;3.70;1.50;;;;;;;8.55;83.92;100679.94;5028328;28;20207;-86
2023/10/15 08:08:50;;;;;;;3.20;1.10;;;;;;;8.58;84.36;100704.19;5031196;28;20210;-85
2023/10/15 08:11:16;;;;;;;1.73;0.80;;;;;;;8.79;83.80;100698.00;5035270;28;20237;-88
2023/10/15 08:13:43;;;;;;;1.80;0.90;;;;;;;8.64;83.29;100711.97;5031412;28;20226;-85
2023/10/15 08:16:09;;;;;;;3.10;0.80;;;;;;;8.76;82.98;100732.72;5037064;28;20298;-85
2023/10/15 08:18:36;;;;;;;1.30;1.00;;;;;;;8.87;81.31;100753.47;5035870;28;20598;-86
2023/10/15 08:21:03;;;;;;;9.67;8.77;;;;;;;8.72;81.47;100783.94;5030584;28;20209;-86
2023/10/15 08:23:31;;;;;;;12.57;11.37;;;;;;;8.71;82.25;100778.72;5033768;28;20230;-83
2023/10/15 08:25:59;;;;;;;4.77;4.37;;;;;;;8.52;81.48;100797.03;5034917;28;20755;-86
2023/10/15 08:28:26;;;;;;;2.37;1.40;;;;;;;8.57;82.02;100780.53;5034313;28;20214;-83
2023/10/15 08:30:54;;;;;;;2.33;1.00;;;;;;;8.61;81.81;100793.53;5030149;28;20226;-82
2023/10/15 08:33:20;;;;;;;2.30;1.23;;;;;;;8.75;81.70;100785.63;5027480;28;20247;-86
2023/10/15 08:35:48;;;;;;;1.63;1.43;;;;;;;8.94;81.58;100791.59;5034386;28;20214;-84
2023/10/15 08:38:15;;;;;;;4.80;1.53;;;;;;;8.85;81.23;100817.69;5035308;28;20203;-83
2023/10/15 08:40:45;;;;;;;1.00;0.90;;;;;;;9.06;80.33;100819.31;5032769;28;20209;-85
2023/10/15 08:43:14;;;;;;;2.00;1.00;;;;;;;8.84;81.32;100832.44;5033885;28;20226;-84
2023/10/15 08:45:42;;;;;;;3.93;1.30;;;;;;;9.04;81.53;100826.22;5038230;28;20203;-85
2023/10/15 08:48:12;;;;;;;1.93;1.10;;;;;;;8.95;79.70;100837.56;5023779;28;20206;-86
2023/10/15 08:50:39;;;;;;;1.43;0.93;;;;;;;9.07;79.80;100852.25;5031623;28;20198;-85
2023/10/15 08:53:06;;;;;;;2.07;1.10;;;;;;;9.03;80.49;100864.44;5025196;28;20235;-83
2023/10/15 08:55:33;;;;;;;2.73;1.20;;;;;;;9.21;80.33;100855.63;5021332;28;20304;-86
2023/10/15 08:58:01;;;;;;;2.90;1.30;;;;;;;9.38;79.85;100872.91;5027560;28;20202;-84
2023/10/15 09:00:28;;;;;;;2.53;1.07;;;;;;;8.88;79.64;100895.75;5037346;28;21469;-82
2023/10/15 09:02:56;;;;;;;1.93;1.07;;;;;;;9.36;80.31;100880.75;5030101;28;20245;-84
2023/10/15 09:05:22;;;;;;;2.30;1.20;;;;;;;9.07;80.86;100880.91;5030917;28;20621;-83
2023/10/15 09:07:51;;;;;;;3.57;1.30;;;;;;;9.15;80.44;100885.19;5034982;28;20208;-84
2023/10/15 09:10:18;;;;;;;1.50;1.10;;;;;;;9.31;79.06;100898.97;5031728;28;20203;-85
2023/10/15 09:12:44;;;;;;;3.40;0.77;;;;;;;9.09;78.51;100926.03;5035325;28;20304;-84
2023/10/15 09:15:16;;;;;;;0.80;0.73;;;;;;;9.03;79.30;100926.06;5036288;28;20219;-83
2023/10/15 09:17:49;;;;;;;1.00;0.90;;;;;;;9.00;80.61;100915.66;5032606;28;20217;-84
2023/10/15 09:20:23;;;;;;;1.57;1.00;;;;;;;9.21;80.02;100889.50;5028220;28;20222;-83
2023/10/15 09:22:52;;;;;;;4.30;0.87;;;;;;;9.29;79.98;100902.47;5029937;28;20225;-83
2023/10/15 09:25:19;;;;;;;1.00;0.80;;;;;;;9.35;80.49;100899.84;5029937;28;20219;-84
2023/10/15 09:27:46;;;;;;;3.37;0.87;;;;;;;9.41;79.44;100897.19;5032220;28;20198;-84
2023/10/15 09:30:19;;;;;;;1.73;0.70;;;;;;;9.66;78.53;100921.34;5034150;28;20221;-84
2023/10/15 09:32:46;;;;;;;1.27;0.77;;;;;;;9.49;76.72;100975.31;5033113;28;20299;-84
2023/10/15 09:35:14;;;;;;;1.93;1.03;;;;;;;9.43;77.90;100991.84;5030496;28;20223;-85
2023/10/15 09:37:40;;;;;;;0.90;0.60;;;;;;;9.68;78.84;100957.84;5028875;28;20207;-83
2023/10/15 09:40:09;;;;;;;1.73;0.80;;;;;;;9.67;77.19;100985.66;5029366;28;20245;-84
2023/10/15 09:42:38;;;;;;;1.53;0.60;;;;;;;9.90;76.30;100982.84;5026922;28;20233;-84
2023/10/15 09:45:06;;;;;;;0.97;0.77;;;;;;;10.11;76.55;101007.06;5017703;28;20200;-83
2023/10/15 09:47:39;;;;;;;2.67;0.67;;;;;;;9.85;74.45;101059.38;5027841;28;20687;-86
2023/10/15 09:50:09;;;;;;;2.80;0.70;;;;;;;10.02;73.52;101090.59;5030580;28;20619;-86
2023/10/15 09:52:37;;;;;;;2.33;0.90;;;;;;;10.00;74.78;101116.66;5018081;28;20236;-87
2023/10/15 09:55:11;;;;;;;1.57;0.50;;;;;;;9.99;72.98;101142.75;5032955;28;20222;-84
2023/10/15 09:57:39;;;;;;;2.33;0.70;;;;;;;9.79;75.33;101119.38;5026058;28;20276;-86
2023/10/15 10:00:13;;;;;;;0.90;0.60;;;;;;;9.94;74.84;101116.72;5033495;28;20210;-86
2023/10/15 10:02:54;;;;;;;2.87;0.57;;;;;;;9.80;74.47;101114.16;5044433;28;20207;-83
2023/10/15 10:05:44;;;;;;;2.50;0.87;;;;;;;9.87;75.21;101105.47;5037941;28;20255;-84
2023/10/15 10:08:21;;;;;;;2.73;0.57;;;;;;;9.92;74.84;101118.47;5057851;28;20251;-85
2023/10/15 10:11:06;;;;;;;1.80;0.70;;;;;;;10.11;74.79;101109.66;5057451;28;20218;-86
2023/10/15 10:13:58;;;;;;;1.87;0.80;;;;;;;9.74;73.30;101129.84;5057330;28;20237;-84
2023/10/15 10:16:27;;;;;;;0.50;0.47;;;;;;;9.88;74.65;101135.00;5058579;28;20190;-84
2023/10/15 10:18:55;;;;;;;2.30;0.70;;;;;;;9.65;74.99;101135.97;5041895;28;20205;-84
2023/10/15 10:21:22;;;;;;;1.67;0.67;;;;;;;9.82;74.43;101120.25;5031456;28;20375;-87
2023/10/15 10:23:53;;;;;;;2.30;0.60;;;;;;;9.89;75.84;101110.63;5036133;28;20202;-85
2023/10/15 10:26:28;;;;;;;3.03;0.80;;;;;;;9.85;75.73;101104.59;5036345;28;20198;-86
2023/10/15 10:28:56;;;;;;;3.77;0.83;;;;;;;9.98;72.97;101149.72;5029269;28;20203;-85
2023/10/15 10:31:23;;;;;;;2.47;0.70;;;;;;;9.93;74.54;101156.72;5019248;28;20198;-88
2023/10/15 10:33:54;;;;;;;2.50;0.77;;;;;;;10.14;74.65;101137.47;5032085;28;20223;-86
2023/10/15 10:36:25;;;;;;;3.13;0.83;;;;;;;10.16;74.06;101133.09;5016916;28;20630;-84
2023/10/15 10:39:00;;;;;;;2.10;0.80;;;;;;;10.06;73.78;101155.75;5034071;28;20209;-87
2023/10/15 10:41:37;;;;;;;2.93;0.60;;;;;;;10.22;73.23;101158.28;5033864;28;20214;-85
2023/10/15 10:44:05;;;;;;;3.13;0.73;;;;;;;10.42;72.55;101195.59;5032638;28;20202;-86
2023/10/15 10:46:41;;;;;;;1.60;0.50;;;;;;;10.62;72.14;101200.69;5031883;28;20253;-86
2023/10/15 10:49:13;;;;;;;1.20;0.53;;;;;;;10.37;70.92;101240.88;5016946;28;20210;-85
2023/10/15 10:51:41;;;;;;;1.77;0.70;;;;;;;10.48;69.90;101273.84;5016170;28;20225;-86
2023/10/15 10:54:26;;;;;;;0.73;0.50;;;;;;;10.42;71.20;101283.47;5015350;28;20229;-88
2023/10/15 10:57:07;;;;;;;1.20;0.53;;;;;;;10.39;70.68;101273.06;5015246;28;20312;-87
2023/10/15 10:59:33;;;;;;;2.77;0.50;;;;;;;10.31;68.25;101307.88;5031715;28;20206;-87
2023/10/15 11:02:00;;;;;;;1.20;0.40;;;;;;;10.29;68.46;101340.06;5026791;28;20231;-88
2023/10/15 11:04:27;;;;;;;1.17;0.47;;;;;;;9.87;70.79;101328.81;5031312;28;20216;-85
2023/10/15 11:06:55;;;;;;;2.23;0.70;;;;;;;9.70;71.17;101310.63;5032628;28;20281;-88
2023/10/15 11:09:22;;;;;;;0.63;0.50;;;;;;;9.86;72.16;101267.13;5034158;28;20212;-86
2023/10/15 11:11:50;;;;;;;2.70;0.40;;;;;;;10.20;71.71;101243.53;5021999;28;20255;-88
2023/10/15 11:14:18;;;;;;;1.90;0.60;;;;;;;9.98;71.29;101250.56;5031908;28;20600;-87
2023/10/15 11:16:44;;;;;;;2.50;0.73;;;;;;;9.96;72.43;101242.75;5022591;28;20239;-87
2023/10/15 11:19:15;;;;;;;2.70;0.60;;;;;;;9.86;72.48;101231.47;5027960;28;20202;-88
2023/10/15 11:21:42;;;;;;;1.73;0.50;;;;;;;9.98;72.21;101229.72;5035465;28;20225;-88
2023/10/15 11:24:12;;;;;;;1.43;0.60;;;;;;;9.98;71.56;101250.56;5035704;28;20209;-89
2023/10/15 11:26:41;;;;;;;2.33;0.73;;;;;;;10.14;70.82;101255.72;5032931;28;20209;-88
2023/10/15 11:29:08;;;;;;;3.80;0.93;;;;;;;10.16;70.46;101278.34;5040516;28;20241;-87
2023/10/15 11:31:35;;;;;;;2.20;0.77;;;;;;;10.13;70.52;101279.22;5033929;28;20240;-88
2023/10/15 11:34:02;;;;;;;1.00;0.60;;;;;;;10.01;70.42;101300.09;5024814;28;20272;-86
2023/10/15 11:36:34;;;;;;;2.57;0.63;;;;;;;10.13;70.33;101284.44;5022521;28;20222;-88
2023/10/15 11:39:03;;;;;;;2.35;0.90;;;;;;;10.34;69.91;101292.19;5028946;28;20443;-85